Time;durP1;ratioP1;P1;durP2;ratioP2;P2;SDS_P1;SDS_P2;PMS_P1;PMS_P2;Temp;Humidity;BMP_temperature;BMP_pressure;BME280_temperature;BME280_humidity;BME280_pressure;Samples;Min_cycle;Max_cycle;Signal;HPM_P1;HPM_P2
2022/09/05 00:01:05;;;;;;;1999.90;999.90;;;12.70;99.90;;;;;;4129899;28;20715;-74
2022/09/05 00:03:23;;;;;;;1999.90;971.03;;;12.60;99.90;;;;;;4129453;28;20221;-75
2022/09/05 00:05:49;;;;;;;1999.90;731.87;;;12.70;99.90;;;;;;4131272;28;20182;-75
2022/09/05 00:08:00;;;;;;;1999.90;892.33;;;12.70;99.90;;;;;;4133063;28;20316;-75
2022/09/05 00:10:23;;;;;;;1999.90;914.73;;;12.70;99.90;;;;;;4133040;28;20208;-74
2022/09/05 00:12:25;;;;;;;1999.90;821.50;;;12.70;99.90;;;;;;4132143;28;20206;-75
2022/09/05 00:14:51;;;;;;;1999.90;725.20;;;12.70;99.90;;;;;;4132759;28;20273;-74
2022/09/05 00:17:08;;;;;;;1999.90;702.50;;;12.70;99.90;;;;;;4132567;28;20210;-74
2022/09/05 00:19:19;;;;;;;1999.90;733.50;;;12.70;99.90;;;;;;4132876;28;20281;-73
2022/09/05 00:21:55;;;;;;;1999.90;999.90;;;12.80;99.90;;;;;;4132473;28;20633;-74
2022/09/05 00:24:05;;;;;;;1999.90;999.90;;;12.70;99.90;;;;;;4115111;28;20191;-74
2022/09/05 00:26:37;;;;;;;1999.90;999.90;;;12.50;99.90;;;;;;4132646;28;20162;-74
2022/09/05 00:28:52;;;;;;;1999.90;999.90;;;12.50;99.90;;;;;;4128447;28;20186;-74
2022/09/05 00:30:58;;;;;;;1999.90;989.00;;;12.50;99.90;;;;;;4116305;28;20179;-74
2022/09/05 00:33:25;;;;;;;1999.90;999.90;;;12.50;99.90;;;;;;4116085;28;20306;-74
2022/09/05 00:35:37;;;;;;;1999.90;999.90;;;12.60;99.90;;;;;;4116203;28;20198;-74
2022/09/05 00:37:44;;;;;;;1999.90;999.90;;;12.40;99.90;;;;;;4116109;28;20215;-74
2022/09/05 00:39:45;;;;;;;1999.90;999.90;;;12.40;99.90;;;;;;4116140;28;20190;-74
2022/09/05 00:41:51;;;;;;;1999.90;999.90;;;12.40;99.90;;;;;;4115574;28;20282;-73
2022/09/05 00:43:52;;;;;;;1999.90;784.67;;;12.40;99.90;;;;;;4116236;28;20195;-74
2022/09/05 00:46:02;;;;;;;1999.90;863.43;;;12.50;99.90;;;;;;4114735;28;20206;-74
2022/09/05 00:48:31;;;;;;;1999.90;722.47;;;12.50;99.90;;;;;;4098826;29;20686;-74
2022/09/05 00:50:44;;;;;;;1999.90;861.83;;;12.40;99.90;;;;;;4115934;28;20716;-74
2022/09/05 00:53:01;;;;;;;1999.90;866.40;;;12.50;99.90;;;;;;4098260;29;20219;-74
2022/09/05 00:55:11;;;;;;;1999.90;557.77;;;12.50;99.90;;;;;;4115885;28;20182;-74
2022/09/05 00:57:38;;;;;;;1999.90;625.07;;;12.50;99.90;;;;;;4115994;28;20225;-74
2022/09/05 01:00:17;;;;;;;1999.90;853.70;;;12.40;99.90;;;;;;4116046;28;20164;-74
2022/09/05 01:02:30;;;;;;;1999.90;970.80;;;12.40;99.90;;;;;;4107109;28;20245;-74
2022/09/05 01:04:46;;;;;;;1999.90;910.67;;;12.40;99.90;;;;;;4115647;28;20233;-74
2022/09/05 01:07:05;;;;;;;1999.90;967.87;;;12.40;99.90;;;;;;4115827;28;20191;-74
2022/09/05 01:09:44;;;;;;;1999.90;819.40;;;12.40;99.90;;;;;;4098510;29;20196;-74
2022/09/05 01:12:25;;;;;;;1999.90;800.53;;;12.40;99.90;;;;;;4097339;29;20203;-74
2022/09/05 01:15:04;;;;;;;1999.90;999.90;;;12.40;99.90;;;;;;4111784;28;20700;-74
2022/09/05 01:17:23;;;;;;;1999.90;808.53;;;12.40;99.90;;;;;;4097974;28;20235;-73
2022/09/05 01:19:29;;;;;;;1999.90;999.90;;;12.30;99.90;;;;;;4115700;28;20187;-74
2022/09/05 01:21:58;;;;;;;1999.90;709.90;;;12.30;99.90;;;;;;4115303;28;20182;-74
2022/09/05 01:24:26;;;;;;;1999.90;971.27;;;12.20;99.90;;;;;;4119107;28;20193;-73
2022/09/05 01:26:50;;;;;;;1999.90;999.90;;;12.20;99.90;;;;;;4116479;28;20594;-74
2022/09/05 01:29:10;;;;;;;1999.90;890.87;;;12.20;99.90;;;;;;4115851;28;20214;-73
2022/09/05 01:31:35;;;;;;;1999.90;764.27;;;12.20;99.90;;;;;;4115643;28;20538;-73
2022/09/05 01:34:22;;;;;;;1999.90;885.53;;;12.20;99.90;;;;;;4114826;28;20225;-74
2022/09/05 01:37:14;;;;;;;1999.90;761.77;;;12.20;99.90;;;;;;4055261;28;20647;-74
2022/09/05 01:39:25;;;;;;;1999.90;986.40;;;12.30;99.90;;;;;;4074451;28;20203;-73
2022/09/05 01:42:11;;;;;;;1999.90;746.33;;;12.20;99.90;;;;;;4115364;28;20202;-74
2022/09/05 01:44:27;;;;;;;1999.90;933.33;;;12.30;99.90;;;;;;4075633;29;20203;-74
2022/09/05 01:46:59;;;;;;;1999.90;920.93;;;12.20;99.90;;;;;;4097879;29;20195;-73
2022/09/05 01:49:23;;;;;;;1999.90;999.90;;;12.20;99.90;;;;;;4115012;28;20203;-74
2022/09/05 01:51:39;;;;;;;1999.90;791.00;;;12.10;99.90;;;;;;4113735;28;20202;-74
2022/09/05 01:54:08;;;;;;;1999.90;999.90;;;12.10;99.90;;;;;;4114522;28;20217;-73
2022/09/05 01:56:47;;;;;;;1999.90;822.13;;;12.10;99.90;;;;;;4098024;29;20729;-73
2022/09/05 01:59:00;;;;;;;1999.90;938.60;;;12.20;99.90;;;;;;4114400;28;20860;-73
2022/09/05 02:01:20;;;;;;;1999.90;999.90;;;12.20;99.90;;;;;;4113732;28;20630;-73
2022/09/05 02:03:41;;;;;;;1999.90;999.90;;;12.00;99.90;;;;;;4109721;28;20814;-73
2022/09/05 02:06:19;;;;;;;1999.90;999.90;;;12.00;99.90;;;;;;4129561;28;20198;-73
2022/09/05 02:08:38;;;;;;;1999.90;999.90;;;12.00;99.90;;;;;;4130760;28;20208;-73
2022/09/05 02:10:57;;;;;;;1999.90;999.90;;;12.00;99.90;;;;;;4130949;28;20221;-73
2022/09/05 02:13:14;;;;;;;1999.90;922.87;;;12.00;99.90;;;;;;4130245;28;20812;-74
2022/09/05 02:15:20;;;;;;;1999.90;815.30;;;12.00;99.90;;;;;;4130969;28;20171;-73
2022/09/05 02:17:36;;;;;;;1999.90;906.80;;;12.00;99.90;;;;;;4130797;28;20673;-73
2022/09/05 02:19:46;;;;;;;1999.90;999.90;;;12.00;99.90;;;;;;4130668;28;20167;-74
2022/09/05 02:21:55;;;;;;;1999.90;999.90;;;12.00;99.90;;;;;;4146079;28;20612;-74
2022/09/05 02:24:16;;;;;;;1999.90;999.90;;;12.00;99.90;;;;;;4146892;28;20162;-74
2022/09/05 02:26:28;;;;;;;1999.90;999.90;;;12.10;99.90;;;;;;4146911;28;20169;-73
2022/09/05 02:28:44;;;;;;;1999.90;499.20;;;12.00;99.90;;;;;;4122001;28;20178;-74
2022/09/05 02:30:52;;;;;;;1999.90;898.93;;;12.00;99.90;;;;;;4130605;28;20194;-74
2022/09/05 02:33:12;;;;;;;1999.90;999.90;;;12.10;99.90;;;;;;4130272;28;20699;-74
2022/09/05 02:35:28;;;;;;;1999.90;846.50;;;12.10;99.90;;;;;;4130429;28;20727;-74
2022/09/05 02:37:43;;;;;;;1999.90;999.90;;;12.00;99.90;;;;;;4113047;28;20208;-74
2022/09/05 02:39:51;;;;;;;1999.90;991.10;;;12.00;99.90;;;;;;4130460;28;20179;-74
2022/09/05 02:41:57;;;;;;;1999.90;999.90;;;12.00;99.90;;;;;;4129812;28;20167;-74
2022/09/05 02:44:07;;;;;;;1999.90;609.60;;;11.90;99.90;;;;;;4130288;28;20213;-74
2022/09/05 02:46:13;;;;;;;1999.90;858.33;;;12.00;99.90;;;;;;4130173;28;20166;-74
2022/09/05 02:48:31;;;;;;;1999.90;747.07;;;11.90;99.90;;;;;;4130293;28;20182;-74
2022/09/05 02:50:50;;;;;;;1999.90;999.90;;;11.90;99.90;;;;;;4130230;28;20178;-74
2022/09/05 02:52:52;;;;;;;1999.90;999.90;;;11.90;99.90;;;;;;4129356;28;20578;-74
2022/09/05 02:54:54;;;;;;;1999.90;934.07;;;11.80;99.90;;;;;;4130213;28;20190;-74
2022/09/05 02:57:16;;;;;;;1999.90;777.00;;;11.80;99.90;;;;;;4129963;28;20206;-74
2022/09/05 02:59:25;;;;;;;1999.90;999.90;;;11.80;99.90;;;;;;4130116;28;20246;-74
2022/09/05 03:01:40;;;;;;;1999.90;999.90;;;11.80;99.90;;;;;;4130082;28;20616;-73
2022/09/05 03:03:50;;;;;;;1999.90;889.30;;;11.80;99.90;;;;;;4129047;28;20239;-74
2022/09/05 03:06:07;;;;;;;1999.90;936.30;;;11.80;99.90;;;;;;4130056;28;20258;-73
2022/09/05 03:08:25;;;;;;;1999.90;896.20;;;11.80;99.90;;;;;;4130058;28;20274;-74
2022/09/05 03:11:02;;;;;;;1999.90;999.90;;;11.80;99.90;;;;;;4112674;28;20266;-74
2022/09/05 03:13:28;;;;;;;1999.90;935.83;;;11.70;99.90;;;;;;4129439;28;20828;-73
2022/09/05 03:15:53;;;;;;;1999.90;839.17;;;11.70;99.90;;;;;;4130005;28;20217;-73
2022/09/05 03:18:18;;;;;;;1999.90;844.07;;;11.70;99.90;;;;;;4112599;28;20617;-73
2022/09/05 03:20:18;;;;;;;1999.90;731.27;;;11.70;99.90;;;;;;4112523;28;20179;-72
2022/09/05 03:22:51;;;;;;;1999.90;999.90;;;11.80;99.90;;;;;;4129223;28;20201;-72
2022/09/05 03:25:21;;;;;;;1999.90;999.90;;;11.80;99.90;;;;;;4112801;28;20183;-73
2022/09/05 03:27:49;;;;;;;1493.73;854.50;;;11.80;99.90;;;;;;4112699;28;20171;-73
2022/09/05 03:30:05;;;;;;;1999.90;999.90;;;11.70;99.90;;;;;;4129778;28;20202;-73
2022/09/05 03:32:26;;;;;;;1999.90;999.90;;;11.70;99.90;;;;;;4129442;28;20174;-73
2022/09/05 03:34:52;;;;;;;1999.90;999.90;;;11.70;99.90;;;;;;4129973;28;20166;-72
2022/09/05 03:37:27;;;;;;;1999.90;999.90;;;11.70;99.90;;;;;;4129797;28;20284;-72
2022/09/05 03:39:45;;;;;;;1999.90;880.30;;;11.70;99.90;;;;;;4115356;28;20182;-74
2022/09/05 03:42:09;;;;;;;1999.90;999.90;;;11.70;99.90;;;;;;4134578;28;20174;-74
2022/09/05 03:44:32;;;;;;;1999.90;999.90;;;11.80;99.90;;;;;;4135164;28;20200;-72
2022/09/05 03:47:33;;;;;;;1999.90;878.80;;;11.80;99.90;;;;;;4149576;28;20193;-73
2022/09/05 03:50:01;;;;;;;1999.90;999.90;;;11.80;99.90;;;;;;4129554;28;20215;-73
2022/09/05 03:52:29;;;;;;;1999.90;908.70;;;11.70;99.90;;;;;;4150518;28;20664;-74
2022/09/05 03:54:58;;;;;;;1999.90;999.90;;;11.70;99.90;;;;;;4150560;28;20208;-73
2022/09/05 03:57:23;;;;;;;1999.90;885.00;;;11.70;99.90;;;;;;4151487;28;20219;-74
2022/09/05 03:59:44;;;;;;;1999.90;999.90;;;11.80;99.90;;;;;;4133877;28;20205;-73
2022/09/05 04:01:55;;;;;;;1999.90;894.67;;;11.70;99.90;;;;;;4150824;28;20196;-73
2022/09/05 04:04:06;;;;;;;1999.90;938.43;;;11.70;99.90;;;;;;4151170;28;20193;-73
2022/09/05 04:06:09;;;;;;;1999.90;983.20;;;11.60;99.90;;;;;;4151300;28;20582;-73
2022/09/05 04:08:35;;;;;;;1999.90;995.23;;;11.70;99.90;;;;;;4151317;28;20288;-73
2022/09/05 04:10:53;;;;;;;1999.90;999.90;;;11.60;99.90;;;;;;4151364;28;20236;-73
2022/09/05 04:13:20;;;;;;;1999.90;999.90;;;11.60;99.90;;;;;;4150622;28;20643;-73
2022/09/05 04:15:20;;;;;;;1999.90;781.73;;;11.60;99.90;;;;;;4133786;28;20171;-74
2022/09/05 04:17:45;;;;;;;1999.90;708.43;;;11.60;99.90;;;;;;4151060;28;20223;-73
2022/09/05 04:19:51;;;;;;;1999.90;982.97;;;11.60;99.90;;;;;;4136476;28;20665;-73
2022/09/05 04:22:30;;;;;;;1999.90;999.90;;;11.60;99.90;;;;;;4134082;28;20273;-73
2022/09/05 04:24:44;;;;;;;1999.90;975.60;;;11.60;99.90;;;;;;4128308;28;20264;-73
2022/09/05 04:27:03;;;;;;;1999.90;999.90;;;11.60;99.90;;;;;;4133480;28;20170;-73
2022/09/05 04:29:13;;;;;;;1999.90;945.07;;;11.50;99.90;;;;;;4119123;28;20226;-73
2022/09/05 04:31:29;;;;;;;1999.90;850.50;;;11.60;99.90;;;;;;4119140;28;20174;-73
2022/09/05 04:33:44;;;;;;;1999.90;775.13;;;11.50;99.90;;;;;;4118287;28;20202;-73
2022/09/05 04:35:57;;;;;;;1999.90;999.90;;;11.50;99.90;;;;;;4101644;29;20191;-74
2022/09/05 04:38:05;;;;;;;1999.90;976.43;;;11.60;99.90;;;;;;4118894;28;20566;-73
2022/09/05 04:40:38;;;;;;;1999.90;725.43;;;11.50;99.90;;;;;;4118796;28;20171;-72
2022/09/05 04:42:40;;;;;;;1999.90;999.90;;;11.50;99.90;;;;;;4118106;28;20298;-72
2022/09/05 04:44:53;;;;;;;1999.90;905.80;;;11.60;99.90;;;;;;4101430;28;20191;-72
2022/09/05 04:47:01;;;;;;;1999.90;998.87;;;11.60;99.90;;;;;;4118665;28;20186;-72
2022/09/05 04:49:25;;;;;;;1999.90;805.73;;;11.70;99.90;;;;;;4118818;28;20185;-73
2022/09/05 04:51:44;;;;;;;1999.90;870.47;;;11.70;99.90;;;;;;4116020;28;20163;-74
2022/09/05 04:54:20;;;;;;;1999.90;917.33;;;11.70;99.90;;;;;;4116431;28;20202;-73
2022/09/05 04:56:29;;;;;;;1999.90;999.90;;;11.70;99.90;;;;;;4116261;28;20607;-73
2022/09/05 04:58:49;;;;;;;1999.90;797.73;;;11.70;99.90;;;;;;4098935;29;20203;-73
2022/09/05 05:00:56;;;;;;;1999.90;999.90;;;11.70;99.90;;;;;;4116218;28;20171;-73
2022/09/05 05:03:03;;;;;;;1999.90;997.23;;;11.80;99.90;;;;;;4115535;28;20253;-74
2022/09/05 05:05:18;;;;;;;1999.90;977.90;;;11.80;99.90;;;;;;4116164;28;20801;-73
2022/09/05 05:07:33;;;;;;;1999.90;844.97;;;11.80;99.90;;;;;;4116279;28;20197;-73
2022/09/05 05:09:43;;;;;;;1999.90;743.37;;;11.80;99.90;;;;;;4116200;28;20179;-73
2022/09/05 05:11:53;;;;;;;1999.90;960.07;;;11.90;99.90;;;;;;4098403;29;20191;-73
2022/09/05 05:14:00;;;;;;;1999.90;999.90;;;11.90;99.90;;;;;;4098999;29;20176;-73
2022/09/05 05:16:03;;;;;;;1999.90;999.90;;;11.90;99.90;;;;;;4116187;28;20653;-74
2022/09/05 05:18:28;;;;;;;1999.90;938.57;;;12.00;99.90;;;;;;4116168;28;20210;-73
2022/09/05 05:20:43;;;;;;;1999.90;917.27;;;11.90;99.90;;;;;;4116151;28;20194;-73
2022/09/05 05:23:13;;;;;;;1999.90;985.03;;;12.00;99.90;;;;;;4115228;28;20249;-74
2022/09/05 05:25:14;;;;;;;1999.90;986.00;;;12.00;99.90;;;;;;4116330;28;20179;-74
2022/09/05 05:27:24;;;;;;;1999.90;891.17;;;12.10;99.90;;;;;;4115889;28;20179;-73
2022/09/05 05:29:33;;;;;;;1999.90;999.90;;;12.10;99.90;;;;;;4116203;28;20247;-73
2022/09/05 05:31:39;;;;;;;1999.90;979.50;;;12.10;99.90;;;;;;4116009;28;20171;-73
2022/09/05 05:33:43;;;;;;;1999.90;926.90;;;12.00;99.90;;;;;;4097736;29;20298;-73
2022/09/05 05:35:47;;;;;;;1999.90;668.03;;;12.00;99.90;;;;;;4115769;28;20186;-73
2022/09/05 05:37:58;;;;;;;1999.90;812.83;;;12.10;99.90;;;;;;4116782;28;20760;-73
2022/09/05 05:40:07;;;;;;;1999.90;835.60;;;12.20;99.90;;;;;;4115683;28;20175;-73
2022/09/05 05:42:19;;;;;;;1999.90;999.90;;;12.20;99.90;;;;;;4114844;28;20174;-73
2022/09/05 05:44:28;;;;;;;1999.90;821.87;;;12.30;99.90;;;;;;4115494;28;20189;-72
2022/09/05 05:46:33;;;;;;;1999.90;318.17;;;12.20;99.90;;;;;;4115467;28;20171;-72
2022/09/05 05:48:39;;;;;;;1999.90;758.13;;;12.30;99.90;;;;;;4115295;28;20179;-72
2022/09/05 05:51:05;;;;;;;1999.90;999.90;;;12.30;99.90;;;;;;4098107;29;20283;-73
2022/09/05 05:53:24;;;;;;;1999.90;507.77;;;12.30;99.90;;;;;;4130252;28;20202;-72
2022/09/05 05:55:46;;;;;;;1999.90;828.80;;;12.30;99.90;;;;;;4131296;28;20189;-72
2022/09/05 05:58:26;;;;;;;1999.90;729.83;;;12.30;99.90;;;;;;4131176;28;20221;-72
2022/09/05 06:01:11;;;;;;;1999.90;682.20;;;12.30;99.90;;;;;;4122866;28;20280;-72
2022/09/05 06:03:34;;;;;;;1999.90;999.90;;;12.40;99.90;;;;;;4096106;28;20309;-72
2022/09/05 06:06:03;;;;;;;1999.90;934.93;;;12.40;99.90;;;;;;4131201;28;20208;-72
2022/09/05 06:08:31;;;;;;;1999.90;902.60;;;12.40;99.90;;;;;;4131249;28;20174;-72
2022/09/05 06:10:59;;;;;;;1999.90;848.77;;;12.40;99.90;;;;;;4130913;28;20665;-72
2022/09/05 06:13:10;;;;;;;1999.90;999.90;;;12.50;99.90;;;;;;4130319;28;20202;-73
2022/09/05 06:15:28;;;;;;;1999.90;999.90;;;12.50;99.90;;;;;;4130876;28;20190;-72
2022/09/05 06:17:52;;;;;;;1999.90;911.03;;;12.60;99.90;;;;;;4130909;28;20568;-73
2022/09/05 06:20:15;;;;;;;1999.90;867.77;;;12.60;99.90;;;;;;4109659;28;20194;-73
2022/09/05 06:22:30;;;;;;;1999.90;771.10;;;12.60;99.90;;;;;;4107641;28;20246;-73
2022/09/05 06:24:42;;;;;;;1999.90;999.90;;;12.70;99.90;;;;;;4114905;28;20180;-73
2022/09/05 06:27:12;;;;;;;1999.90;999.90;;;12.70;99.90;;;;;;4114781;28;20186;-73
2022/09/05 06:29:44;;;;;;;1999.90;909.07;;;12.80;99.90;;;;;;4114720;28;20175;-74
2022/09/05 06:32:08;;;;;;;1999.90;776.43;;;12.90;99.90;;;;;;4097046;29;20638;-73
2022/09/05 06:34:31;;;;;;;1999.90;999.90;;;12.90;99.90;;;;;;4114872;28;20684;-73
2022/09/05 06:37:03;;;;;;;1999.90;741.27;;;13.00;99.90;;;;;;4114596;28;20194;-73
2022/09/05 06:39:10;;;;;;;1999.90;574.87;;;13.10;99.90;;;;;;4114519;28;20697;-73
2022/09/05 06:41:38;;;;;;;1999.90;514.93;;;13.10;99.90;;;;;;4114412;28;20178;-73
2022/09/05 06:43:54;;;;;;;1999.90;850.97;;;13.20;99.90;;;;;;4113752;28;20221;-73
2022/09/05 06:46:14;;;;;;;1999.90;680.40;;;13.30;99.90;;;;;;4114209;28;20167;-73
2022/09/05 06:48:28;;;;;;;1999.90;598.57;;;13.40;99.90;;;;;;4114033;28;20178;-73
2022/09/05 06:50:56;;;;;;;1999.90;999.90;;;13.40;99.90;;;;;;4114103;28;20230;-73
2022/09/05 06:53:31;;;;;;;1999.90;999.90;;;13.40;99.90;;;;;;4113448;28;20202;-73
2022/09/05 06:56:02;;;;;;;1999.90;999.90;;;13.60;99.90;;;;;;4077555;28;20669;-73
2022/09/05 06:58:24;;;;;;;1999.90;999.90;;;13.70;99.90;;;;;;4113899;28;20218;-73
2022/09/05 07:00:47;;;;;;;1999.90;999.90;;;13.70;99.90;;;;;;4113889;28;20270;-73
2022/09/05 07:02:51;;;;;;;1999.90;999.90;;;13.80;99.90;;;;;;4113485;28;20293;-73
2022/09/05 07:05:18;;;;;;;1999.90;999.90;;;13.80;99.90;;;;;;4096656;29;20183;-73
2022/09/05 07:07:53;;;;;;;1999.90;999.90;;;14.00;99.90;;;;;;4114165;28;20170;-73
2022/09/05 07:10:03;;;;;;;1999.90;782.53;;;14.00;99.90;;;;;;4096591;29;20557;-73
2022/09/05 07:12:37;;;;;;;1999.90;999.90;;;14.10;99.90;;;;;;4111973;28;20273;-73
2022/09/05 07:14:46;;;;;;;1999.90;284.90;;;14.20;99.90;;;;;;4119062;28;20684;-72
2022/09/05 07:16:52;;;;;;;1999.90;999.90;;;14.30;99.90;;;;;;4111783;28;20192;-73
2022/09/05 07:19:00;;;;;;;1999.90;999.90;;;14.40;99.90;;;;;;4129734;28;20175;-73
2022/09/05 07:21:18;;;;;;;1699.97;741.53;;;14.50;99.90;;;;;;4128699;28;20224;-73
2022/09/05 07:23:46;;;;;;;1999.90;999.90;;;14.60;99.90;;;;;;4128648;28;20268;-73
2022/09/05 07:25:53;;;;;;;1999.90;999.90;;;14.70;99.90;;;;;;4129023;28;20859;-76
2022/09/05 07:28:11;;;;;;;1999.90;999.90;;;14.80;99.90;;;;;;4129478;28;20840;-73
2022/09/05 07:30:12;;;;;;;1999.90;999.90;;;14.90;99.90;;;;;;4129740;28;20185;-72
2022/09/05 07:32:16;;;;;;;1999.90;999.90;;;15.00;99.90;;;;;;4128740;28;20596;-73
2022/09/05 07:34:30;;;;;;;1999.90;999.90;;;15.20;99.90;;;;;;4129117;28;20205;-73
2022/09/05 07:36:45;;;;;;;1994.70;468.80;;;15.30;99.90;;;;;;4126719;28;20668;-72
2022/09/05 07:38:50;;;;;;;1999.90;999.90;;;15.50;99.90;;;;;;4127253;28;20216;-73
2022/09/05 07:41:16;;;;;;;1999.90;999.90;;;15.60;99.90;;;;;;4129212;28;20195;-73
2022/09/05 07:43:42;;;;;;;1999.90;336.60;;;15.70;99.90;;;;;;4128622;28;20649;-73
2022/09/05 07:45:49;;;;;;;1586.03;483.63;;;15.80;99.90;;;;;;4105276;28;20285;-72
2022/09/05 07:47:55;;;;;;;1697.13;720.53;;;15.90;99.90;;;;;;4129443;28;20603;-73
2022/09/05 07:50:03;;;;;;;1999.90;677.40;;;16.00;99.90;;;;;;4129413;28;20173;-72
2022/09/05 07:52:18;;;;;;;1999.90;780.53;;;16.20;99.90;;;;;;4128711;28;20166;-73
2022/09/05 07:54:26;;;;;;;1999.90;428.10;;;16.40;99.90;;;;;;4129753;28;20182;-72
2022/09/05 07:56:47;;;;;;;1999.90;178.60;;;16.60;99.90;;;;;;4141905;28;20660;-72
2022/09/05 07:58:51;;;;;;;1851.10;707.87;;;16.80;99.90;;;;;;4142502;28;20274;-73
2022/09/05 08:00:55;;;;;;;1999.90;312.03;;;17.00;99.90;;;;;;4125147;28;20186;-74
2022/09/05 08:03:07;;;;;;;1999.90;482.57;;;17.20;99.90;;;;;;4128416;28;20575;-74
2022/09/05 08:05:08;;;;;;;1578.47;133.07;;;17.40;99.90;;;;;;4129141;28;20232;-73
2022/09/05 08:07:18;;;;;;;1999.90;999.90;;;17.60;99.90;;;;;;4129412;28;20182;-75
2022/09/05 08:09:26;;;;;;;1976.10;274.90;;;17.80;99.90;;;;;;4129288;28;20608;-74
2022/09/05 08:11:31;;;;;;;1999.90;721.37;;;18.10;99.90;;;;;;4129284;28;20289;-75
2022/09/05 08:13:44;;;;;;;1999.90;414.90;;;18.40;99.90;;;;;;4128860;28;20205;-75
2022/09/05 08:15:58;;;;;;;1999.90;999.90;;;18.60;99.90;;;;;;4129360;28;20209;-74
2022/09/05 08:18:15;;;;;;;1999.90;781.23;;;18.80;98.80;;;;;;4129289;28;20206;-74
2022/09/05 08:20:36;;;;;;;1999.90;999.90;;;18.90;98.10;;;;;;4112089;28;20187;-74
2022/09/05 08:22:48;;;;;;;1999.90;194.20;;;19.10;97.30;;;;;;4110725;28;20651;-74
2022/09/05 08:25:15;;;;;;;1999.90;999.90;;;19.30;96.70;;;;;;4129366;28;20174;-74
2022/09/05 08:27:23;;;;;;;1999.90;999.90;;;19.50;95.70;;;;;;4132176;28;20163;-74
2022/09/05 08:29:44;;;;;;;1999.90;810.30;;;19.70;95.40;;;;;;4115047;28;20186;-74
2022/09/05 08:31:54;;;;;;;1999.90;999.90;;;20.10;92.50;;;;;;4130782;28;20294;-73
2022/09/05 08:33:59;;;;;;;1999.90;730.73;;;20.20;92.40;;;;;;4131195;28;20652;-74
2022/09/05 08:36:25;;;;;;;1999.90;472.03;;;20.40;90.40;;;;;;4132287;28;20170;-73
2022/09/05 08:38:28;;;;;;;1999.90;811.93;;;20.60;90.90;;;;;;4132181;28;20289;-74
2022/09/05 08:40:53;;;;;;;1999.90;515.10;;;20.90;81.80;;;;;;4114617;28;20195;-74
2022/09/05 08:43:29;;;;;;;1999.90;879.43;;;21.10;82.00;;;;;;4098295;29;20646;-73
2022/09/05 08:45:43;;;;;;;1999.90;609.40;;;21.40;75.90;;;;;;4114675;28;20225;-74
2022/09/05 08:48:25;;;;;;;1999.90;999.90;;;21.70;75.40;;;;;;4114863;28;20209;-74
2022/09/05 08:50:57;;;;;;;1999.90;834.10;;;21.80;76.00;;;;;;4132058;28;20186;-73
2022/09/05 08:53:24;;;;;;;1999.90;735.73;;;21.90;71.50;;;;;;4113913;28;20889;-74
2022/09/05 08:56:04;;;;;;;1999.90;934.77;;;22.10;67.10;;;;;;4132048;28;20248;-74
2022/09/05 08:58:49;;;;;;;1999.90;915.93;;;22.30;65.00;;;;;;4114361;28;20218;-74
2022/09/05 09:00:57;;;;;;;1999.90;836.37;;;22.70;59.60;;;;;;4130672;28;20273;-74
2022/09/05 09:03:39;;;;;;;1999.90;830.97;;;23.00;52.00;;;;;;4113645;28;20808;-74
2022/09/05 09:05:56;;;;;;;1999.90;745.80;;;23.30;50.00;;;;;;4131762;28;20248;-74
2022/09/05 09:08:15;;;;;;;1690.37;718.93;;;23.30;45.90;;;;;;4114238;28;20190;-74
2022/09/05 09:10:54;;;;;;;1999.90;780.77;;;23.60;47.10;;;;;;4098300;29;20687;-74
2022/09/05 09:13:17;;;;;;;1837.03;773.30;;;23.70;46.90;;;;;;4113671;28;20207;-73
2022/09/05 09:15:30;;;;;;;1999.90;816.67;;;23.80;45.20;;;;;;4114306;28;20282;-74
2022/09/05 09:17:45;;;;;;;1999.90;964.20;;;23.80;47.80;;;;;;4133211;28;20598;-74
2022/09/05 09:20:12;;;;;;;1999.90;769.00;;;23.80;46.00;;;;;;4119855;28;20211;-74
2022/09/05 09:22:46;;;;;;;1999.90;914.63;;;24.00;45.90;;;;;;4113440;28;20207;-75
2022/09/05 09:25:12;;;;;;;1999.90;763.70;;;24.20;48.40;;;;;;4131674;28;20719;-74
2022/09/05 09:27:49;;;;;;;493.77;461.17;;;24.40;39.00;;;;;;4114454;28;20175;-75
2022/09/05 09:29:52;;;;;;;493.67;438.77;;;24.40;37.60;;;;;;4131539;28;20273;-75
2022/09/05 09:32:05;;;;;;;1999.90;791.63;;;24.70;37.10;;;;;;4097664;29;20195;-74
2022/09/05 09:34:36;;;;;;;1999.90;829.03;;;24.60;38.40;;;;;;4132069;28;20260;-74
2022/09/05 09:36:58;;;;;;;1999.90;932.97;;;24.60;40.70;;;;;;4113768;28;20728;-75
2022/09/05 09:39:37;;;;;;;1999.90;783.37;;;24.60;39.40;;;;;;4131525;28;20228;-75
2022/09/05 09:42:13;;;;;;;1999.90;929.83;;;24.80;37.80;;;;;;4131686;28;20680;-75
2022/09/05 09:44:14;;;;;;;1999.90;714.03;;;25.20;41.90;;;;;;4131421;28;20316;-75
2022/09/05 09:46:40;;;;;;;1999.90;887.37;;;25.20;36.50;;;;;;4131563;28;20547;-75
2022/09/05 09:48:58;;;;;;;1999.90;693.90;;;25.00;36.50;;;;;;4114300;28;20187;-74
2022/09/05 09:51:35;;;;;;;1420.03;590.90;;;24.60;33.60;;;;;;4131325;28;20190;-74
2022/09/05 09:53:56;;;;;;;1751.97;785.77;;;24.60;34.80;;;;;;4130713;28;20206;-74
2022/09/05 09:56:26;;;;;;;1999.90;797.20;;;25.10;36.40;;;;;;4113744;28;20183;-74
2022/09/05 09:59:11;;;;;;;1999.90;910.33;;;25.20;36.30;;;;;;4113496;28;20697;-74
2022/09/05 10:01:52;;;;;;;1999.90;880.57;;;25.20;35.90;;;;;;4130899;28;20167;-74
2022/09/05 10:04:36;;;;;;;1999.90;911.17;;;25.90;35.10;;;;;;4116043;28;20226;-74
2022/09/05 10:07:14;;;;;;;1531.43;708.67;;;25.20;36.50;;;;;;4097272;29;20179;-75
2022/09/05 10:09:37;;;;;;;1999.90;859.83;;;25.70;35.50;;;;;;4130735;28;20174;-75
2022/09/05 10:12:16;;;;;;;1938.20;950.67;;;25.60;35.40;;;;;;4130668;28;20598;-75
2022/09/05 10:15:09;;;;;;;1999.90;999.90;;;25.80;35.20;;;;;;4129737;28;20178;-75
2022/09/05 10:17:24;;;;;;;1999.90;841.10;;;25.70;36.20;;;;;;4115081;28;20225;-75
2022/09/05 10:19:46;;;;;;;1999.90;846.60;;;25.00;36.00;;;;;;4130579;28;20170;-75
2022/09/05 10:22:20;;;;;;;1999.90;999.90;;;26.00;34.20;;;;;;4113108;28;20254;-75
2022/09/05 10:24:40;;;;;;;1999.90;999.90;;;26.90;36.10;;;;;;4130526;28;20189;-75
2022/09/05 10:27:32;;;;;;;1999.90;994.80;;;28.00;33.70;;;;;;4113179;28;20573;-76
2022/09/05 10:29:43;;;;;;;1999.90;999.90;;;28.50;33.30;;;;;;4097066;28;20206;-74
2022/09/05 10:32:40;;;;;;;1999.90;999.90;;;28.10;34.40;;;;;;4096347;29;20533;-75
2022/09/05 10:35:14;;;;;;;1999.90;946.97;;;28.50;35.10;;;;;;4127249;28;20244;-75
2022/09/05 10:37:17;;;;;;;1999.90;961.13;;;28.80;34.50;;;;;;4112899;28;20199;-76
2022/09/05 10:39:24;;;;;;;1999.90;999.90;;;28.80;33.70;;;;;;4130180;28;20901;-75
2022/09/05 10:41:42;;;;;;;1999.90;737.50;;;28.90;33.60;;;;;;4113106;28;20486;-75
2022/09/05 10:44:01;;;;;;;1999.90;838.23;;;28.10;34.50;;;;;;4097464;29;20207;-76
2022/09/05 10:46:21;;;;;;;1999.90;766.43;;;28.80;35.10;;;;;;4112802;28;20269;-76
2022/09/05 10:48:47;;;;;;;1999.90;755.80;;;28.90;35.40;;;;;;4112379;28;20187;-76
2022/09/05 10:50:59;;;;;;;1999.90;966.25;;;29.70;34.50;;;;;;4130262;28;20192;-76
2022/09/05 10:53:42;;;;;;;1999.90;968.97;;;30.50;31.30;;;;;;4112164;28;20209;-76
2022/09/05 10:56:18;;;;;;;1999.90;664.03;;;30.60;32.20;;;;;;4130245;28;20224;-76
2022/09/05 10:58:45;;;;;;;1999.90;752.20;;;30.80;32.50;;;;;;4130041;28;20659;-77
2022/09/05 11:01:40;;;;;;;1999.90;999.90;;;30.50;33.70;;;;;;4113096;28;20182;-77
2022/09/05 11:03:50;;;;;;;1999.90;853.40;;;31.00;30.30;;;;;;4096552;28;20231;-77
2022/09/05 11:06:04;;;;;;;1999.90;937.13;;;30.00;32.50;;;;;;4130431;28;20185;-77
2022/09/05 11:08:49;;;;;;;1999.90;909.20;;;29.80;32.20;;;;;;4117149;28;20198;-78
2022/09/05 11:11:12;;;;;;;1999.90;999.90;;;30.40;31.00;;;;;;4125636;28;20233;-78
2022/09/05 11:13:34;;;;;;;1999.90;954.90;;;31.20;28.70;;;;;;4129949;28;20202;-77
2022/09/05 11:16:10;;;;;;;1999.90;932.95;;;29.80;28.90;;;;;;4113463;28;20266;-78
2022/09/05 11:18:39;;;;;;;1999.90;779.65;;;29.50;30.00;;;;;;4093246;28;20218;-77
2022/09/05 11:21:07;;;;;;;1999.90;847.40;;;29.90;30.00;;;;;;4113788;28;20167;-76
2022/09/05 11:23:46;;;;;;;1999.90;999.90;;;30.30;30.80;;;;;;4113972;28;20238;-78